Belfry, Kentucky
Current Conditions -  °F | °C
As of 9:15 AM on Tuesday 27 Jan 2015 (Local Time) from KPBX Reporting Station
Light Snow Light Snow  
Wind Chill: 24°   Ceiling: 2300
Heat Index: 24°   Visibility: 5mi
Dew Point: 21°   Wind: 3mph
Humidity: 88%   Direction: 310°NW
Pressure: 29.95"   Gusts: NA
Location:  37.62°N, 82.27°W
Report Text: KPBX 271415Z AUTO 31003KT 5SM -SN SCT009 BKN023 OVC060 M04/M06 A2995 RMK AO2 T10431060
Loading
Personal Weather Stations






























Interactive Weather Map New forecast layout! Learn more

10-Day Weather Forecast

Advertisements
Track Severe Weather on mobile